Washington, DC (20508)

10:34 AM EDT on July 31, 2015 (GMT -0400)
Adams Morgan | | Change Station
CLOSE
Current Station
Personal Weather Station
Location: Washington, DC
Elevation: 171 ft
Nearby Weather Stations

Elev 171 ft 38.92 °N, 77.04 °W | Updated 32 seconds ago

Clear
Clear
81.7 °F
Feels Like 83 °F
N
0.2
Wind Variable Wind from SE
Gusts 2.5 mph

Today
High -- | Low -- °F
--% Chance of Precip.
Yesterday
High -- | Low -- °F
Precip. -- in
6:08 AM 8:20 PM
Full, 100% visible
Pressure 29.96 in
Visibility 10.0 miles
Clouds Clear
Heat Index 83 °F
Dew Point 63 °F
Humidity 53%
Rainfall 0.00 in
Snow Depth Not available.
UV 4.0 out of 12
Pollen 7.10 out of 12
Air Quality Not available.
Flu Activity Not available.
METAR KDCA 311352Z 30009KT 10SM CLR 29/16 A2996 RMK AO2 SLP144 T02940161

More Conditions Fewer Conditions

Pressure 29.96 in
Visibility 10.0 miles
Clouds Clear
Heat Index 83 °F
Dew Point 63 °F
Humidity 53%
Rainfall 0.00 in
Snow Depth Not available.
UV 4.0 out of 12
Pollen 7.10 out of 12
Air Quality Not available.
Flu Activity Not available.
METAR KDCA 311352Z 30009KT 10SM CLR 29/16 A2996 RMK AO2 SLP144 T02940161

More Conditions Fewer Conditions

10-Day Weather Forecast

×

Almanac

Astronomy

Jul. 31, 2015 Rise Set
Actual Time
Civil Twilight
Nautical Twilight
Astronomical Twilight
Moon
Length of Visible Light
Length of Day
Tomorrow will be .
, % of the Moon is Illuminated

Today's Extremes

State Highs State Lows

Community

WunderPhotos

Upload Photos

1,842,664 photos uploaded!

WunderBlogs® & News

Nearby

Air Quality

  Air Quality AQ Index Pollutant
Not available.

Snow Depth

Station Depth Elevation

Earthquake Activity

City Distance Mag. Time & Date
Minimum magnitude displayed is 2.5.

Coastal Water Temperatures

Place Temperature

Stations

Nearby Weather Stations

Station Location Temp. Windchill Dew Point Humidity Wind Precip. Elev Updated Type